sensor_id;sensor_type;location;lat;lon;timestamp;pressure;altitude;pressure_sealevel;temperature;humidity
68456;BME280;55437;55.046;38.838;2022-12-20T00:00:03;101187.81;;;0.30;64.45
68456;BME280;55437;55.046;38.838;2022-12-20T00:02:30;101187.91;;;0.33;64.25
68456;BME280;55437;55.046;38.838;2022-12-20T00:04:56;101189.53;;;0.31;64.28
68456;BME280;55437;55.046;38.838;2022-12-20T00:07:22;101198.72;;;0.29;64.13
68456;BME280;55437;55.046;38.838;2022-12-20T00:09:48;101198.41;;;0.19;64.09
68456;BME280;55437;55.046;38.838;2022-12-20T00:12:14;101195.59;;;0.10;64.42
68456;BME280;55437;55.046;38.838;2022-12-20T00:14:39;101210.78;;;0.11;64.36
68456;BME280;55437;55.046;38.838;2022-12-20T00:17:05;101206.66;;;0.15;64.52
68456;BME280;55437;55.046;38.838;2022-12-20T00:19:31;101201.66;;;0.16;64.33
68456;BME280;55437;55.046;38.838;2022-12-20T00:21:56;101208.66;;;0.23;64.47
68456;BME280;55437;55.046;38.838;2022-12-20T00:24:22;101197.53;;;0.18;64.68
68456;BME280;55437;55.046;38.838;2022-12-20T00:26:48;101190.72;;;0.16;64.65
68456;BME280;55437;55.046;38.838;2022-12-20T00:29:14;101179.53;;;0.08;64.65
68456;BME280;55437;55.046;38.838;2022-12-20T00:31:40;101169.41;;;0.08;64.46
68456;BME280;55437;55.046;38.838;2022-12-20T00:34:08;101157.75;;;0.11;64.03
68456;BME280;55437;55.046;38.838;2022-12-20T00:36:38;101147.50;;;0.07;64.25
68456;BME280;55437;55.046;38.838;2022-12-20T00:39:06;101148.19;;;0.03;64.59
68456;BME280;55437;55.046;38.838;2022-12-20T00:41:33;101148.25;;;0.04;64.60
68456;BME280;55437;55.046;38.838;2022-12-20T00:44:00;101161.91;;;0.09;64.44
68456;BME280;55437;55.046;38.838;2022-12-20T00:46:26;101163.63;;;0.10;64.44
68456;BME280;55437;55.046;38.838;2022-12-20T00:48:52;101165.06;;;0.04;64.59
68456;BME280;55437;55.046;38.838;2022-12-20T00:51:22;101162.66;;;0.07;64.20
68456;BME280;55437;55.046;38.838;2022-12-20T00:53:48;101165.97;;;0.06;64.44
68456;BME280;55437;55.046;38.838;2022-12-20T00:56:13;101158.31;;;0.03;64.12
68456;BME280;55437;55.046;38.838;2022-12-20T00:58:41;101163.16;;;-0.04;64.12
68456;BME280;55437;55.046;38.838;2022-12-20T01:03:41;101158.03;;;-0.07;64.52
68456;BME280;55437;55.046;38.838;2022-12-20T01:06:08;101157.16;;;-0.07;64.30
68456;BME280;55437;55.046;38.838;2022-12-20T01:08:34;101166.56;;;-0.03;64.31
68456;BME280;55437;55.046;38.838;2022-12-20T01:11:31;101165.13;;;0.05;64.40
68456;BME280;55437;55.046;38.838;2022-12-20T01:14:00;101156.91;;;0.11;64.15
68456;BME280;55437;55.046;38.838;2022-12-20T01:16:46;101159.31;;;0.08;64.24
68456;BME280;55437;55.046;38.838;2022-12-20T01:19:15;101142.25;;;0.00;64.37
68456;BME280;55437;55.046;38.838;2022-12-20T01:21:41;101142.81;;;-0.08;64.60
68456;BME280;55437;55.046;38.838;2022-12-20T01:24:11;101142.63;;;-0.14;64.40
68456;BME280;55437;55.046;38.838;2022-12-20T01:26:37;101139.97;;;-0.19;64.52
68456;BME280;55437;55.046;38.838;2022-12-20T01:29:03;101142.94;;;-0.30;64.68
68456;BME280;55437;55.046;38.838;2022-12-20T01:31:30;101147.94;;;-0.32;64.87
68456;BME280;55437;55.046;38.838;2022-12-20T01:33:56;101124.41;;;-0.31;64.96
68456;BME280;55437;55.046;38.838;2022-12-20T01:36:29;101112.78;;;-0.27;65.19
68456;BME280;55437;55.046;38.838;2022-12-20T01:39:05;101106.06;;;-0.27;64.84
68456;BME280;55437;55.046;38.838;2022-12-20T01:41:34;101117.88;;;-0.26;64.67
68456;BME280;55437;55.046;38.838;2022-12-20T01:46:31;101112.94;;;-0.21;64.55
68456;BME280;55437;55.046;38.838;2022-12-20T01:49:15;101091.25;;;-0.16;64.87
68456;BME280;55437;55.046;38.838;2022-12-20T01:51:47;101086.31;;;-0.12;64.43
68456;BME280;55437;55.046;38.838;2022-12-20T01:54:44;101108.06;;;-0.17;64.73
68456;BME280;55437;55.046;38.838;2022-12-20T01:57:17;101113.91;;;-0.18;64.56
68456;BME280;55437;55.046;38.838;2022-12-20T01:59:46;101123.09;;;-0.20;64.50
68456;BME280;55437;55.046;38.838;2022-12-20T02:02:15;101116.78;;;-0.32;64.68
68456;BME280;55437;55.046;38.838;2022-12-20T02:04:40;101116.03;;;-0.30;64.95
68456;BME280;55437;55.046;38.838;2022-12-20T02:07:07;101100.97;;;-0.28;65.06
68456;BME280;55437;55.046;38.838;2022-12-20T02:09:38;101093.03;;;-0.39;64.98
68456;BME280;55437;55.046;38.838;2022-12-20T02:12:20;101082.91;;;-0.41;64.98
68456;BME280;55437;55.046;38.838;2022-12-20T02:22:45;101100.06;;;-0.56;64.91
68456;BME280;55437;55.046;38.838;2022-12-20T02:30:46;101105.50;;;-0.44;64.66
68456;BME280;55437;55.046;38.838;2022-12-20T02:33:14;101089.09;;;-0.31;64.68
68456;BME280;55437;55.046;38.838;2022-12-20T02:35:40;101084.47;;;-0.17;64.40
68456;BME280;55437;55.046;38.838;2022-12-20T02:41:32;101092.75;;;-0.21;64.19
68456;BME280;55437;55.046;38.838;2022-12-20T02:44:08;101090.09;;;-0.26;64.16
68456;BME280;55437;55.046;38.838;2022-12-20T02:46:55;101081.69;;;-0.26;64.34
68456;BME280;55437;55.046;38.838;2022-12-20T02:49:28;101074.97;;;-0.26;64.54
68456;BME280;55437;55.046;38.838;2022-12-20T02:51:56;101077.50;;;-0.26;64.55
68456;BME280;55437;55.046;38.838;2022-12-20T02:54:23;101073.19;;;-0.28;64.54
68456;BME280;55437;55.046;38.838;2022-12-20T02:56:58;101072.50;;;-0.23;64.73
68456;BME280;55437;55.046;38.838;2022-12-20T02:59:36;101080.13;;;-0.21;64.17
68456;BME280;55437;55.046;38.838;2022-12-20T03:02:06;101081.47;;;-0.32;64.52
68456;BME280;55437;55.046;38.838;2022-12-20T03:04:35;101081.38;;;-0.36;64.88
68456;BME280;55437;55.046;38.838;2022-12-20T03:07:10;101084.25;;;-0.25;64.74
68456;BME280;55437;55.046;38.838;2022-12-20T03:09:39;101078.28;;;-0.27;64.57
68456;BME280;55437;55.046;38.838;2022-12-20T03:12:06;101087.19;;;-0.38;64.65
68456;BME280;55437;55.046;38.838;2022-12-20T03:14:35;101082.50;;;-0.53;64.60
68456;BME280;55437;55.046;38.838;2022-12-20T03:17:04;101084.50;;;-0.43;64.91
68456;BME280;55437;55.046;38.838;2022-12-20T03:19:30;101084.84;;;-0.32;64.60
68456;BME280;55437;55.046;38.838;2022-12-20T03:21:57;101078.34;;;-0.25;64.26
68456;BME280;55437;55.046;38.838;2022-12-20T03:24:23;101070.63;;;-0.30;64.22
68456;BME280;55437;55.046;38.838;2022-12-20T03:26:51;101060.28;;;-0.38;64.38
68456;BME280;55437;55.046;38.838;2022-12-20T03:29:21;101064.91;;;-0.51;64.75
68456;BME280;55437;55.046;38.838;2022-12-20T03:31:47;101055.28;;;-0.63;64.30
68456;BME280;55437;55.046;38.838;2022-12-20T03:34:13;101051.50;;;-0.76;64.45
68456;BME280;55437;55.046;38.838;2022-12-20T03:36:40;101050.22;;;-0.88;64.82
68456;BME280;55437;55.046;38.838;2022-12-20T03:39:05;101051.19;;;-0.85;64.62
68456;BME280;55437;55.046;38.838;2022-12-20T03:41:36;101041.56;;;-0.95;64.69
68456;BME280;55437;55.046;38.838;2022-12-20T03:44:02;101042.06;;;-1.05;64.40
68456;BME280;55437;55.046;38.838;2022-12-20T03:46:29;101043.53;;;-1.12;64.50
68456;BME280;55437;55.046;38.838;2022-12-20T03:48:57;101044.94;;;-1.20;64.68
68456;BME280;55437;55.046;38.838;2022-12-20T03:51:23;101041.34;;;-1.26;64.53
68456;BME280;55437;55.046;38.838;2022-12-20T03:53:48;101032.56;;;-1.37;64.92
68456;BME280;55437;55.046;38.838;2022-12-20T03:56:16;101029.81;;;-1.43;64.68
68456;BME280;55437;55.046;38.838;2022-12-20T03:58:42;101029.66;;;-1.48;64.31
68456;BME280;55437;55.046;38.838;2022-12-20T04:01:25;101026.19;;;-1.52;64.31
68456;BME280;55437;55.046;38.838;2022-12-20T04:03:53;101020.41;;;-1.49;64.26
68456;BME280;55437;55.046;38.838;2022-12-20T04:06:20;101009.56;;;-1.47;64.03
68456;BME280;55437;55.046;38.838;2022-12-20T04:08:47;101010.56;;;-1.41;64.07
68456;BME280;55437;55.046;38.838;2022-12-20T04:11:20;101011.44;;;-1.41;63.46
68456;BME280;55437;55.046;38.838;2022-12-20T04:14:07;101006.50;;;-1.62;63.38
68456;BME280;55437;55.046;38.838;2022-12-20T04:16:33;101000.59;;;-1.86;63.90
68456;BME280;55437;55.046;38.838;2022-12-20T04:18:59;101002.72;;;-1.97;64.00
68456;BME280;55437;55.046;38.838;2022-12-20T04:21:32;100999.03;;;-2.05;64.00
68456;BME280;55437;55.046;38.838;2022-12-20T04:24:00;100992.41;;;-2.03;64.17
68456;BME280;55437;55.046;38.838;2022-12-20T04:26:36;100993.19;;;-2.05;64.05
68456;BME280;55437;55.046;38.838;2022-12-20T04:29:03;100992.59;;;-1.98;64.02
68456;BME280;55437;55.046;38.838;2022-12-20T04:31:29;100993.19;;;-2.04;64.15
68456;BME280;55437;55.046;38.838;2022-12-20T04:33:55;100988.16;;;-2.04;64.23
68456;BME280;55437;55.046;38.838;2022-12-20T04:36:21;100987.75;;;-1.94;64.09
68456;BME280;55437;55.046;38.838;2022-12-20T04:38:49;100978.69;;;-1.89;63.92
68456;BME280;55437;55.046;38.838;2022-12-20T04:41:15;100979.66;;;-1.85;63.71
68456;BME280;55437;55.046;38.838;2022-12-20T04:43:55;100965.00;;;-1.73;63.41
68456;BME280;55437;55.046;38.838;2022-12-20T04:46:25;100976.34;;;-1.60;63.12
68456;BME280;55437;55.046;38.838;2022-12-20T04:48:54;100969.31;;;-1.69;63.01
68456;BME280;55437;55.046;38.838;2022-12-20T04:51:20;100965.00;;;-1.73;63.15
68456;BME280;55437;55.046;38.838;2022-12-20T04:53:45;100970.94;;;-1.71;63.22
68456;BME280;55437;55.046;38.838;2022-12-20T04:56:30;100963.03;;;-1.80;63.25
68456;BME280;55437;55.046;38.838;2022-12-20T04:59:02;100960.31;;;-1.86;63.07
68456;BME280;55437;55.046;38.838;2022-12-20T05:01:29;100971.78;;;-1.94;63.36
68456;BME280;55437;55.046;38.838;2022-12-20T05:03:55;100960.84;;;-1.95;62.83
68456;BME280;55437;55.046;38.838;2022-12-20T05:06:21;100966.75;;;-1.94;62.88
68456;BME280;55437;55.046;38.838;2022-12-20T05:08:47;100968.16;;;-2.01;62.81
68456;BME280;55437;55.046;38.838;2022-12-20T05:11:13;100973.19;;;-2.01;62.82
68456;BME280;55437;55.046;38.838;2022-12-20T05:13:39;100964.09;;;-1.97;62.29
68456;BME280;55437;55.046;38.838;2022-12-20T05:16:06;100958.34;;;-1.95;61.83
68456;BME280;55437;55.046;38.838;2022-12-20T05:18:33;100962.59;;;-1.92;61.47
68456;BME280;55437;55.046;38.838;2022-12-20T05:21:03;100952.00;;;-2.07;61.55
68456;BME280;55437;55.046;38.838;2022-12-20T05:23:50;100951.06;;;-2.09;61.24
68456;BME280;55437;55.046;38.838;2022-12-20T05:26:47;100942.44;;;-2.16;60.95
68456;BME280;55437;55.046;38.838;2022-12-20T05:29:15;100941.88;;;-2.31;61.12
68456;BME280;55437;55.046;38.838;2022-12-20T05:31:41;100950.09;;;-2.35;60.86
68456;BME280;55437;55.046;38.838;2022-12-20T05:34:08;100954.41;;;-2.33;60.77
68456;BME280;55437;55.046;38.838;2022-12-20T05:36:36;100953.81;;;-2.26;60.57
68456;BME280;55437;55.046;38.838;2022-12-20T05:39:04;100949.72;;;-2.24;60.00
68456;BME280;55437;55.046;38.838;2022-12-20T05:41:33;100955.06;;;-2.37;59.58
68456;BME280;55437;55.046;38.838;2022-12-20T05:44:00;100949.41;;;-2.54;59.76
68456;BME280;55437;55.046;38.838;2022-12-20T05:46:27;100943.22;;;-2.62;59.55
68456;BME280;55437;55.046;38.838;2022-12-20T05:48:58;100953.22;;;-2.63;60.16
68456;BME280;55437;55.046;38.838;2022-12-20T05:51:24;100946.84;;;-2.55;59.37
68456;BME280;55437;55.046;38.838;2022-12-20T05:53:56;100944.56;;;-2.49;59.49
68456;BME280;55437;55.046;38.838;2022-12-20T05:56:36;100925.94;;;-2.54;59.20
68456;BME280;55437;55.046;38.838;2022-12-20T05:59:01;100930.44;;;-2.45;58.94
68456;BME280;55437;55.046;38.838;2022-12-20T06:01:27;100923.13;;;-2.39;58.35
68456;BME280;55437;55.046;38.838;2022-12-20T06:03:57;100925.69;;;-2.38;58.17
68456;BME280;55437;55.046;38.838;2022-12-20T06:06:23;100924.91;;;-2.37;58.44
68456;BME280;55437;55.046;38.838;2022-12-20T06:08:49;100927.41;;;-2.37;58.28
68456;BME280;55437;55.046;38.838;2022-12-20T06:11:21;100923.91;;;-2.40;57.96
68456;BME280;55437;55.046;38.838;2022-12-20T06:13:53;100917.28;;;-2.38;57.89
68456;BME280;55437;55.046;38.838;2022-12-20T06:16:19;100918.09;;;-2.39;58.03
68456;BME280;55437;55.046;38.838;2022-12-20T06:18:48;100914.84;;;-2.37;57.75
68456;BME280;55437;55.046;38.838;2022-12-20T06:21:15;100914.50;;;-2.46;57.64
68456;BME280;55437;55.046;38.838;2022-12-20T06:23:42;100911.75;;;-2.52;57.94
68456;BME280;55437;55.046;38.838;2022-12-20T06:26:11;100908.94;;;-2.60;57.74
68456;BME280;55437;55.046;38.838;2022-12-20T06:28:49;100900.56;;;-2.60;57.41
68456;BME280;55437;55.046;38.838;2022-12-20T06:31:21;100899.09;;;-2.55;57.32
68456;BME280;55437;55.046;38.838;2022-12-20T06:33:50;100897.44;;;-2.55;57.21
68456;BME280;55437;55.046;38.838;2022-12-20T06:36:18;100897.25;;;-2.59;56.76
68456;BME280;55437;55.046;38.838;2022-12-20T06:38:44;100893.75;;;-2.63;57.14
68456;BME280;55437;55.046;38.838;2022-12-20T06:41:09;100888.97;;;-2.57;57.26
68456;BME280;55437;55.046;38.838;2022-12-20T06:43:36;100890.94;;;-2.48;57.32
68456;BME280;55437;55.046;38.838;2022-12-20T06:46:01;100885.13;;;-2.47;57.07
68456;BME280;55437;55.046;38.838;2022-12-20T06:48:28;100889.91;;;-2.53;56.74
68456;BME280;55437;55.046;38.838;2022-12-20T06:50:54;100879.75;;;-2.56;56.31
68456;BME280;55437;55.046;38.838;2022-12-20T06:53:20;100884.16;;;-2.73;56.95
68456;BME280;55437;55.046;38.838;2022-12-20T06:55:46;100880.84;;;-2.72;56.61
68456;BME280;55437;55.046;38.838;2022-12-20T06:58:19;100878.13;;;-2.76;56.59
68456;BME280;55437;55.046;38.838;2022-12-20T07:00:47;100875.53;;;-2.57;56.38
68456;BME280;55437;55.046;38.838;2022-12-20T07:03:12;100880.69;;;-2.54;55.83
68456;BME280;55437;55.046;38.838;2022-12-20T07:05:39;100877.00;;;-2.40;55.96
68456;BME280;55437;55.046;38.838;2022-12-20T07:08:06;100876.38;;;-2.34;56.06
68456;BME280;55437;55.046;38.838;2022-12-20T07:10:36;100878.16;;;-2.32;55.76
68456;BME280;55437;55.046;38.838;2022-12-20T07:13:02;100879.81;;;-2.32;55.83
68456;BME280;55437;55.046;38.838;2022-12-20T07:15:28;100863.53;;;-2.42;55.35
68456;BME280;55437;55.046;38.838;2022-12-20T07:17:53;100872.03;;;-2.38;55.81
68456;BME280;55437;55.046;38.838;2022-12-20T07:20:19;100870.44;;;-2.36;55.32
68456;BME280;55437;55.046;38.838;2022-12-20T07:22:48;100873.22;;;-2.29;55.54
68456;BME280;55437;55.046;38.838;2022-12-20T07:25:14;100864.31;;;-2.21;55.15
68456;BME280;55437;55.046;38.838;2022-12-20T07:27:39;100873.03;;;-2.11;55.10
68456;BME280;55437;55.046;38.838;2022-12-20T07:30:06;100868.97;;;-2.07;54.89
68456;BME280;55437;55.046;38.838;2022-12-20T07:32:32;100876.56;;;-2.06;54.77
68456;BME280;55437;55.046;38.838;2022-12-20T07:34:57;100865.00;;;-2.01;54.77
68456;BME280;55437;55.046;38.838;2022-12-20T07:37:23;100866.22;;;-1.90;54.63
68456;BME280;55437;55.046;38.838;2022-12-20T07:39:49;100863.22;;;-1.79;54.54
68456;BME280;55437;55.046;38.838;2022-12-20T07:42:14;100860.63;;;-1.81;54.78
68456;BME280;55437;55.046;38.838;2022-12-20T07:44:42;100846.44;;;-1.79;54.59
68456;BME280;55437;55.046;38.838;2022-12-20T07:47:07;100838.09;;;-1.78;54.13
68456;BME280;55437;55.046;38.838;2022-12-20T07:49:34;100840.66;;;-1.76;54.59
68456;BME280;55437;55.046;38.838;2022-12-20T07:52:01;100833.00;;;-1.79;54.79
68456;BME280;55437;55.046;38.838;2022-12-20T07:54:30;100822.75;;;-1.86;54.31
68456;BME280;55437;55.046;38.838;2022-12-20T07:56:59;100811.94;;;-1.83;54.53
68456;BME280;55437;55.046;38.838;2022-12-20T07:59:35;100797.56;;;-1.86;54.34
68456;BME280;55437;55.046;38.838;2022-12-20T08:02:01;100793.72;;;-2.00;54.16
68456;BME280;55437;55.046;38.838;2022-12-20T08:04:28;100789.25;;;-2.08;54.80
68456;BME280;55437;55.046;38.838;2022-12-20T08:06:56;100785.94;;;-2.07;54.86
68456;BME280;55437;55.046;38.838;2022-12-20T08:09:28;100787.09;;;-1.98;54.64
68456;BME280;55437;55.046;38.838;2022-12-20T08:11:57;100774.13;;;-1.85;54.19
68456;BME280;55437;55.046;38.838;2022-12-20T08:14:22;100766.69;;;-1.82;54.36
68456;BME280;55437;55.046;38.838;2022-12-20T08:16:48;100762.63;;;-1.76;53.81
68456;BME280;55437;55.046;38.838;2022-12-20T08:19:15;100762.97;;;-1.66;54.05
68456;BME280;55437;55.046;38.838;2022-12-20T08:21:40;100754.59;;;-1.65;53.68
68456;BME280;55437;55.046;38.838;2022-12-20T08:24:06;100745.44;;;-1.63;53.58
68456;BME280;55437;55.046;38.838;2022-12-20T08:26:37;100738.66;;;-1.65;53.73
68456;BME280;55437;55.046;38.838;2022-12-20T08:29:03;100726.97;;;-1.63;53.24
68456;BME280;55437;55.046;38.838;2022-12-20T08:31:28;100722.25;;;-1.53;53.50
68456;BME280;55437;55.046;38.838;2022-12-20T08:33:54;100719.84;;;-1.50;53.24
68456;BME280;55437;55.046;38.838;2022-12-20T08:36:20;100718.56;;;-1.37;53.13
68456;BME280;55437;55.046;38.838;2022-12-20T08:38:45;100710.50;;;-1.25;52.86
68456;BME280;55437;55.046;38.838;2022-12-20T08:41:13;100710.91;;;-1.12;52.82
68456;BME280;55437;55.046;38.838;2022-12-20T08:43:40;100699.31;;;-1.05;52.58
68456;BME280;55437;55.046;38.838;2022-12-20T08:46:07;100696.09;;;-1.01;52.53
68456;BME280;55437;55.046;38.838;2022-12-20T08:48:34;100683.25;;;-1.09;52.56
68456;BME280;55437;55.046;38.838;2022-12-20T08:51:05;100673.31;;;-1.04;52.54
68456;BME280;55437;55.046;38.838;2022-12-20T08:53:35;100673.97;;;-1.11;52.61
68456;BME280;55437;55.046;38.838;2022-12-20T08:56:10;100656.84;;;-1.23;52.92
68456;BME280;55437;55.046;38.838;2022-12-20T08:58:36;100649.31;;;-1.21;52.51
68456;BME280;55437;55.046;38.838;2022-12-20T09:01:05;100641.53;;;-1.29;52.43
68456;BME280;55437;55.046;38.838;2022-12-20T09:03:32;100630.69;;;-1.26;52.71
68456;BME280;55437;55.046;38.838;2022-12-20T09:06:04;100626.59;;;-1.23;52.51
68456;BME280;55437;55.046;38.838;2022-12-20T09:08:33;100618.44;;;-1.14;52.40
68456;BME280;55437;55.046;38.838;2022-12-20T09:11:09;100619.16;;;-1.18;52.30
68456;BME280;55437;55.046;38.838;2022-12-20T09:13:37;100615.09;;;-1.13;52.05
68456;BME280;55437;55.046;38.838;2022-12-20T09:16:04;100600.41;;;-0.96;51.85
68456;BME280;55437;55.046;38.838;2022-12-20T09:18:31;100600.09;;;-0.77;51.79
68456;BME280;55437;55.046;38.838;2022-12-20T09:21:01;100588.72;;;-0.63;51.78
68456;BME280;55437;55.046;38.838;2022-12-20T09:23:27;100584.97;;;-0.77;51.08
68456;BME280;55437;55.046;38.838;2022-12-20T09:25:53;100580.56;;;-0.86;51.09
68456;BME280;55437;55.046;38.838;2022-12-20T09:28:20;100569.72;;;-0.82;51.03
68456;BME280;55437;55.046;38.838;2022-12-20T09:30:49;100562.28;;;-0.77;51.13
68456;BME280;55437;55.046;38.838;2022-12-20T09:33:15;100558.38;;;-0.66;51.17
68456;BME280;55437;55.046;38.838;2022-12-20T09:35:45;100556.84;;;-0.59;50.90
68456;BME280;55437;55.046;38.838;2022-12-20T09:38:11;100550.38;;;-0.50;50.65
68456;BME280;55437;55.046;38.838;2022-12-20T09:40:37;100549.34;;;-0.56;50.46
68456;BME280;55437;55.046;38.838;2022-12-20T09:43:03;100533.41;;;-0.55;51.00
68456;BME280;55437;55.046;38.838;2022-12-20T09:45:34;100538.09;;;-0.69;50.77
68456;BME280;55437;55.046;38.838;2022-12-20T09:48:01;100536.13;;;-0.81;51.10
68456;BME280;55437;55.046;38.838;2022-12-20T09:50:39;100533.31;;;-0.93;51.54
68456;BME280;55437;55.046;38.838;2022-12-20T09:56:06;100519.53;;;-1.05;51.21
68456;BME280;55437;55.046;38.838;2022-12-20T09:59:01;100514.72;;;-0.96;51.44
68456;BME280;55437;55.046;38.838;2022-12-20T10:01:30;100508.09;;;-0.93;51.42
68456;BME280;55437;55.046;38.838;2022-12-20T10:04:00;100514.34;;;-0.79;51.21
68456;BME280;55437;55.046;38.838;2022-12-20T10:09:01;100506.22;;;-0.67;51.00
68456;BME280;55437;55.046;38.838;2022-12-20T10:16:52;100477.06;;;-0.56;50.16
68456;BME280;55437;55.046;38.838;2022-12-20T10:22:17;100468.25;;;-0.37;50.04
68456;BME280;55437;55.046;38.838;2022-12-20T10:24:52;100450.72;;;-0.31;49.89
68456;BME280;55437;55.046;38.838;2022-12-20T10:27:20;100448.41;;;-0.20;49.93
68456;BME280;55437;55.046;38.838;2022-12-20T10:29:48;100433.38;;;-0.16;49.88
68456;BME280;55437;55.046;38.838;2022-12-20T10:32:17;100433.25;;;-0.22;49.63
68456;BME280;55437;55.046;38.838;2022-12-20T10:34:55;100431.53;;;-0.24;49.61
68456;BME280;55437;55.046;38.838;2022-12-20T10:37:21;100419.91;;;-0.16;49.56
68456;BME280;55437;55.046;38.838;2022-12-20T10:39:49;100414.56;;;-0.30;49.09
68456;BME280;55437;55.046;38.838;2022-12-20T10:44:50;100403.91;;;-0.17;49.46
68456;BME280;55437;55.046;38.838;2022-12-20T10:47:40;100394.13;;;-0.02;49.07
68456;BME280;55437;55.046;38.838;2022-12-20T10:52:43;100391.97;;;-0.24;49.07
68456;BME280;55437;55.046;38.838;2022-12-20T10:55:32;100385.03;;;-0.34;48.79
68456;BME280;55437;55.046;38.838;2022-12-20T11:00:37;100377.06;;;-0.13;48.79
68456;BME280;55437;55.046;38.838;2022-12-20T11:03:21;100373.97;;;0.02;49.12
68456;BME280;55437;55.046;38.838;2022-12-20T11:05:58;100363.16;;;0.07;48.72
68456;BME280;55437;55.046;38.838;2022-12-20T11:08:26;100361.44;;;0.06;48.66
68456;BME280;55437;55.046;38.838;2022-12-20T11:13:42;100354.72;;;0.07;49.14
68456;BME280;55437;55.046;38.838;2022-12-20T11:22:40;100336.69;;;-0.12;49.33
68456;BME280;55437;55.046;38.838;2022-12-20T11:36:22;100324.50;;;-0.34;49.67
68456;BME280;55437;55.046;38.838;2022-12-20T11:38:58;100322.53;;;-0.49;50.05
68456;BME280;55437;55.046;38.838;2022-12-20T11:41:41;100324.53;;;-0.75;49.78
68456;BME280;55437;55.046;38.838;2022-12-20T11:47:11;100327.59;;;-1.25;50.54
68456;BME280;55437;55.046;38.838;2022-12-20T11:57:47;100311.16;;;-1.46;50.93
68456;BME280;55437;55.046;38.838;2022-12-20T12:00:16;100307.81;;;-1.45;51.12
68456;BME280;55437;55.046;38.838;2022-12-20T12:02:47;100310.44;;;-1.40;51.43
68456;BME280;55437;55.046;38.838;2022-12-20T12:05:22;100300.44;;;-1.37;51.15
68456;BME280;55437;55.046;38.838;2022-12-20T12:08:02;100291.88;;;-1.43;51.15
68456;BME280;55437;55.046;38.838;2022-12-20T12:10:38;100287.41;;;-1.55;51.20
68456;BME280;55437;55.046;38.838;2022-12-20T12:15:59;100274.72;;;-1.60;51.36
68456;BME280;55437;55.046;38.838;2022-12-20T12:18:28;100277.19;;;-1.61;52.08
68456;BME280;55437;55.046;38.838;2022-12-20T12:21:12;100283.81;;;-1.65;52.04
68456;BME280;55437;55.046;38.838;2022-12-20T12:24:03;100272.81;;;-1.70;51.85
68456;BME280;55437;55.046;38.838;2022-12-20T12:26:34;100277.81;;;-1.71;52.27
68456;BME280;55437;55.046;38.838;2022-12-20T12:29:05;100275.19;;;-1.74;52.57
68456;BME280;55437;55.046;38.838;2022-12-20T12:37:25;100257.59;;;-1.74;52.80
68456;BME280;55437;55.046;38.838;2022-12-20T12:42:53;100239.94;;;-1.76;53.19
68456;BME280;55437;55.046;38.838;2022-12-20T12:45:42;100243.97;;;-1.83;53.16
68456;BME280;55437;55.046;38.838;2022-12-20T12:50:55;100230.38;;;-1.89;53.56
68456;BME280;55437;55.046;38.838;2022-12-20T12:53:42;100236.38;;;-1.84;53.62
68456;BME280;55437;55.046;38.838;2022-12-20T13:04:29;100250.25;;;-2.00;53.76
68456;BME280;55437;55.046;38.838;2022-12-20T13:07:00;100245.94;;;-2.05;53.65
68456;BME280;55437;55.046;38.838;2022-12-20T13:11:54;100240.59;;;-2.17;53.92
68456;BME280;55437;55.046;38.838;2022-12-20T13:16:47;100243.13;;;-2.16;54.05
68456;BME280;55437;55.046;38.838;2022-12-20T13:19:14;100234.81;;;-2.13;54.08
68456;BME280;55437;55.046;38.838;2022-12-20T13:21:43;100227.94;;;-2.21;54.14
68456;BME280;55437;55.046;38.838;2022-12-20T13:27:25;100229.59;;;-2.21;53.91
68456;BME280;55437;55.046;38.838;2022-12-20T13:37:54;100240.44;;;-2.54;54.37
68456;BME280;55437;55.046;38.838;2022-12-20T13:43:14;100235.72;;;-2.43;54.99
68456;BME280;55437;55.046;38.838;2022-12-20T13:45:53;100243.34;;;-2.40;54.85
68456;BME280;55437;55.046;38.838;2022-12-20T13:48:27;100239.25;;;-2.36;54.88
68456;BME280;55437;55.046;38.838;2022-12-20T13:50:55;100245.22;;;-2.33;54.68
68456;BME280;55437;55.046;38.838;2022-12-20T13:53:24;100239.41;;;-2.30;55.15
68456;BME280;55437;55.046;38.838;2022-12-20T13:55:51;100234.56;;;-2.23;55.09
68456;BME280;55437;55.046;38.838;2022-12-20T13:58:25;100240.28;;;-2.28;54.93
68456;BME280;55437;55.046;38.838;2022-12-20T14:00:53;100228.66;;;-2.25;54.79
68456;BME280;55437;55.046;38.838;2022-12-20T14:03:29;100217.78;;;-2.24;54.71
68456;BME280;55437;55.046;38.838;2022-12-20T14:06:03;100231.44;;;-2.14;55.14
68456;BME280;55437;55.046;38.838;2022-12-20T14:08:37;100228.97;;;-2.12;55.13
68456;BME280;55437;55.046;38.838;2022-12-20T14:11:12;100227.72;;;-2.28;55.03
68456;BME280;55437;55.046;38.838;2022-12-20T14:13:38;100232.38;;;-2.43;55.05
68456;BME280;55437;55.046;38.838;2022-12-20T14:16:15;100231.56;;;-2.41;55.57
68456;BME280;55437;55.046;38.838;2022-12-20T14:18:47;100228.34;;;-2.37;55.17
68456;BME280;55437;55.046;38.838;2022-12-20T14:21:17;100225.78;;;-2.38;55.19
68456;BME280;55437;55.046;38.838;2022-12-20T14:23:46;100221.78;;;-2.32;55.36
68456;BME280;55437;55.046;38.838;2022-12-20T14:26:28;100218.59;;;-2.25;55.26
68456;BME280;55437;55.046;38.838;2022-12-20T14:28:58;100221.28;;;-2.19;55.20
68456;BME280;55437;55.046;38.838;2022-12-20T14:31:39;100227.25;;;-2.13;55.26
68456;BME280;55437;55.046;38.838;2022-12-20T14:34:05;100236.50;;;-2.12;55.20
68456;BME280;55437;55.046;38.838;2022-12-20T14:36:42;100228.06;;;-2.14;55.20
68456;BME280;55437;55.046;38.838;2022-12-20T14:39:27;100224.78;;;-2.12;55.36
68456;BME280;55437;55.046;38.838;2022-12-20T14:42:13;100218.19;;;-2.08;55.37
68456;BME280;55437;55.046;38.838;2022-12-20T14:44:42;100232.16;;;-2.20;55.36
68456;BME280;55437;55.046;38.838;2022-12-20T14:47:14;100230.34;;;-2.24;55.64
68456;BME280;55437;55.046;38.838;2022-12-20T14:49:47;100229.72;;;-2.15;55.82